Ocean Beaut — WDD7485 — position and weather

sailwx.info

Track history (hours):
 
Tides and Currents Weather Stations Pressure Air Temp Water Temp Dewpoint Dewpoint Depression Visibility Wind Speed Wind Dir Waves Ship Positions

Ocean Beaut

Owner: John Moreland Fishing Inc., Astoria, OR. More information available from US FCC via Universal Licensing System.

Last reported at 2015-Sep-02 01:32 UTC. Time now 2015-Sep-02 02:27 UTC.
Position N 46°26' W 124°19'.

Length 20 m.

Type: Fishing. MMSI: 367187080.

Date/timePositionNaut miles runAvg speedWind from/ knotsBaromVisibWave heightAir tempDewpointWater temp
2015-Sep-02 01:32N 46°26' W 124°19'1 1.5
2015-Sep-02 00:34N 46°26' W 124°21'2 2.3
2015-Sep-01 23:32N 46°23' W 124°21'2 2.5
2015-Sep-01 22:33N 46°21' W 124°21'2 1.9
2015-Sep-01 21:33N 46°19' W 124°20'1 1.4
2015-Sep-01 20:33N 46°20' W 124°22'2 2.2
2015-Sep-01 19:31N 46°21' W 124°24'2 2.3
2015-Sep-01 18:33N 46°24' W 124°25'3 2.5
2015-Sep-01 17:33N 46°26' W 124°25'2 2.0
2015-Sep-01 16:33N 46°24' W 124°24'2 2.3
2015-Sep-01 15:33N 46°22' W 124°23'2 2.4
2015-Sep-01 14:33N 46°20' W 124°21'3 2.6
2015-Sep-01 13:33N 46°18' W 124°19'1 1.2
2015-Sep-01 12:30N 46°19' W 124°20'1 0.7
2015-Sep-01 11:33N 46°19' W 124°20'1 0.9
2015-Sep-01 10:33N 46°19' W 124°20'2 1.5
2015-Sep-01 09:33N 46°17' W 124°20'4 3.6
2015-Sep-01 08:33N 46°14' W 124°19'2 2.5
2015-Sep-01 07:33N 46°11' W 124°20'3 2.6
2015-Sep-01 06:33N 46°09' W 124°20'3 2.7
2015-Sep-01 05:34N 46°06' W 124°20'4 3.6
2015-Sep-01 04:33N 46°10' W 124°20'6 6.3
2015-Sep-01 03:33N 46°16' W 124°21'3 3.3
2015-Sep-01 02:33N 46°19' W 124°21'2 2.1
2015-Sep-01 01:32N 46°21' W 124°22'2 2.4
2015-Sep-01 00:33N 46°23' W 124°23'2 2.3
2015-Aug-31 23:33N 46°26' W 124°24'1 0.7
2015-Aug-31 22:33N 46°25' W 124°25'2 2.1
2015-Aug-31 21:30N 46°23' W 124°24'2 2.4
2015-Aug-31 20:33N 46°21' W 124°24'2 2.4
2015-Aug-31 19:32N 46°19' W 124°21'1 1.4
2015-Aug-31 18:33N 46°18' W 124°20'2 1.7
2015-Aug-31 17:33N 46°20' W 124°21'2 2.1
2015-Aug-31 16:33N 46°22' W 124°23'2 2.3
2015-Aug-31 15:33N 46°24' W 124°24'2 2.2
2015-Aug-31 14:33N 46°26' W 124°25'2 1.8
2015-Aug-31 13:32N 46°28' W 124°25'1 0.7
2015-Aug-31 12:33N 46°27' W 124°25'1 0.7
2015-Aug-31 11:32N 46°26' W 124°25'2 1.5
2015-Aug-31 10:32N 46°25' W 124°25'2 2.4
2015-Aug-31 09:33N 46°23' W 124°24'2 2.5
2015-Aug-31 08:33N 46°20' W 124°23'3 2.5
2015-Aug-31 07:33N 46°18' W 124°22'2 2.2
2015-Aug-31 06:33N 46°18' W 124°19'1 1.4
2015-Aug-31 05:33N 46°19' W 124°21'2 2.4
2015-Aug-31 04:33N 46°21' W 124°22'2 2.4
2015-Aug-31 03:33N 46°24' W 124°24'2 2.2
2015-Aug-31 02:33N 46°26' W 124°24'0 0.3
2015-Aug-31 01:33N 46°25' W 124°25'2 2.3
2015-Aug-31 00:32N 46°23' W 124°24'2 2.4
2015-Aug-30 23:32N 46°21' W 124°23'2 2.5
2015-Aug-30 22:32N 46°19' W 124°21'8 7.0
2015-Aug-30 21:26N 46°15' W 124°11'6 6.6
2015-Aug-30 20:33N 46°15' W 124°03'5 5.1
2015-Aug-30 19:33N 46°13' W 123°57'5 5.2
2015-Aug-30 18:33N 46°12' W 123°49'1 0.6
2015-Aug-30 17:33N 46°12' W 123°48'0 0.0
2015-Aug-30 16:33N 46°12' W 123°48'0 0.0
2015-Aug-30 15:33N 46°12' W 123°48'0 0.0
2015-Aug-30 14:34N 46°12' W 123°48'0 0.0
2015-Aug-30 13:33N 46°12' W 123°48'0 0.0
2015-Aug-30 12:33N 46°12' W 123°48'0 0.0
2015-Aug-30 11:34N 46°12' W 123°48'0 0.0
2015-Aug-30 10:33N 46°12' W 123°48'0 0.0
2015-Aug-30 09:33N 46°12' W 123°48'0 0.0
2015-Aug-30 08:33N 46°12' W 123°48'0 0.0
2015-Aug-30 07:33N 46°12' W 123°48'0 0.0
2015-Aug-30 06:30N 46°12' W 123°48'0 0.0
2015-Aug-30 05:34N 46°12' W 123°48'0 0.0
2015-Aug-30 04:34N 46°12' W 123°48'0 0.0
2015-Aug-30 03:34N 46°12' W 123°48'0 0.0
2015-Aug-30 02:34N 46°12' W 123°48'0 0.0
2015-Aug-30 01:31N 46°12' W 123°48'0 0.0
2015-Aug-30 00:34N 46°12' W 123°48'0 0.0
2015-Aug-29 23:31N 46°12' W 123°48'0 0.0
2015-Aug-29 22:31N 46°12' W 123°48'0 0.0
2015-Aug-29 21:31N 46°12' W 123°48'0 0.0
2015-Aug-29 20:31N 46°12' W 123°48'0 0.0
2015-Aug-29 19:31N 46°12' W 123°48'0 0.0
2015-Aug-29 18:31N 46°12' W 123°48'0 0.0
2015-Aug-29 17:31N 46°12' W 123°48'0 0.0
2015-Aug-29 16:31N 46°12' W 123°48'0 0.0
2015-Aug-29 15:31N 46°12' W 123°48'0 0.0
2015-Aug-29 14:31N 46°12' W 123°48'0 0.0
2015-Aug-29 13:28N 46°12' W 123°48'0 0.0
2015-Aug-29 12:31N 46°12' W 123°48'0 0.0
2015-Aug-29 11:31N 46°12' W 123°48'0 0.0
2015-Aug-29 10:31N 46°12' W 123°48'0 0.0
2015-Aug-29 09:31N 46°12' W 123°48'0 0.0
2015-Aug-29 08:31N 46°12' W 123°48'0 0.0
2015-Aug-29 07:31N 46°12' W 123°48'0 0.0
2015-Aug-29 06:31N 46°12' W 123°48'0 0.0
2015-Aug-29 05:31N 46°12' W 123°48'0 0.0
2015-Aug-29 04:31N 46°12' W 123°48'0 0.0
2015-Aug-29 03:31N 46°12' W 123°48'0 0.0
2015-Aug-29 02:31N 46°12' W 123°48'0 0.0
2015-Aug-29 01:28N 46°12' W 123°48'0 0.0
2015-Aug-29 00:31N 46°12' W 123°48'0 0.0
2015-Aug-28 23:31N 46°12' W 123°48'0 0.0
2015-Aug-28 22:31N 46°12' W 123°48'0 0.0
2015-Aug-28 21:31N 46°12' W 123°48'0 0.0
2015-Aug-28 20:31N 46°12' W 123°48'0 0.0
2015-Aug-28 19:31N 46°12' W 123°48'0 0.0
2015-Aug-28 18:31N 46°12' W 123°48'0 0.0
2015-Aug-28 17:31N 46°12' W 123°48'0 0.0
2015-Aug-28 16:31N 46°12' W 123°48'0 0.0
2015-Aug-28 15:31N 46°12' W 123°48'0 0.0
2015-Aug-28 14:31N 46°12' W 123°48'0 0.0
2015-Aug-28 13:31N 46°12' W 123°48'0 0.0
2015-Aug-28 12:31N 46°12' W 123°48'0 0.0
2015-Aug-28 11:31N 46°12' W 123°48'0 0.0
2015-Aug-28 10:31N 46°12' W 123°48'0 0.0
2015-Aug-28 09:28N 46°12' W 123°48'0 0.0
2015-Aug-28 08:31N 46°12' W 123°48'0 0.0
2015-Aug-28 07:31N 46°12' W 123°48'0 0.0
2015-Aug-28 06:31N 46°12' W 123°48'0 0.0
2015-Aug-28 05:31N 46°12' W 123°48'0 0.0
2015-Aug-28 04:31N 46°12' W 123°48'0 0.0
2015-Aug-28 03:31N 46°12' W 123°48'0 0.0
2015-Aug-28 02:31N 46°12' W 123°48'0 0.0
2015-Aug-28 01:31N 46°12' W 123°48'0 0.0
2015-Aug-28 00:28N 46°12' W 123°48'0 0.0
2015-Aug-27 23:31N 46°12' W 123°48'0 0.0
2015-Aug-27 22:31N 46°12' W 123°48'0 0.0
2015-Aug-27 21:31N 46°12' W 123°48'0 0.0
2015-Aug-27 20:31N 46°12' W 123°48'2 1.5
2015-Aug-27 19:29N 46°12' W 123°50'1 0.9
2015-Aug-27 18:31N 46°11' W 123°51'1 1.1
2015-Aug-27 17:34N 46°12' W 123°50'1 1.3
2015-Aug-27 16:33N 46°12' W 123°48'0 0.0
2015-Aug-27 15:30N 46°12' W 123°48'0 0.0
2015-Aug-27 14:33N 46°12' W 123°48'0 0.0
2015-Aug-27 13:33N 46°12' W 123°48'0 0.0
2015-Aug-27 12:33N 46°12' W 123°48'0 0.0
2015-Aug-27 11:33N 46°12' W 123°48'0 0.0
2015-Aug-27 10:33N 46°12' W 123°48'0 0.0
2015-Aug-27 09:33N 46°12' W 123°48'0 0.0
2015-Aug-27 08:33N 46°12' W 123°48'0 0.0
2015-Aug-27 07:33N 46°12' W 123°48'0 0.0
2015-Aug-27 06:33N 46°12' W 123°48'0 0.0
2015-Aug-27 05:30N 46°12' W 123°48'0 0.0
2015-Aug-27 04:33N 46°12' W 123°48'0 0.0
2015-Aug-27 03:33N 46°12' W 123°48'0 0.0
2015-Aug-27 02:33N 46°12' W 123°48'0 0.0
2015-Aug-27 01:30N 46°12' W 123°48'0 0.0
2015-Aug-27 00:33N 46°12' W 123°48'0 0.0
2015-Aug-26 23:33N 46°12' W 123°48'0 0.0
2015-Aug-26 22:33N 46°12' W 123°48'0 0.0
2015-Aug-26 21:33N 46°12' W 123°48'0 0.0
2015-Aug-26 20:33N 46°12' W 123°48'0 0.0
2015-Aug-26 19:33N 46°12' W 123°48'0 0.0
2015-Aug-26 18:33N 46°12' W 123°48'0 0.0
2015-Aug-26 17:33N 46°12' W 123°48'0 0.0
2015-Aug-26 16:33N 46°12' W 123°48'0 0.0
2015-Aug-26 15:33N 46°12' W 123°48'0 0.0
2015-Aug-26 14:33N 46°12' W 123°48'0 0.0
2015-Aug-26 13:33N 46°12' W 123°48'0 0.0
2015-Aug-26 12:33N 46°12' W 123°48'0 0.0
2015-Aug-26 11:33N 46°12' W 123°48'0 0.0
2015-Aug-26 10:30N 46°12' W 123°48'0 0.0
2015-Aug-26 09:33N 46°12' W 123°48'0 0.0
2015-Aug-26 08:33N 46°12' W 123°48'0 0.0
2015-Aug-26 07:33N 46°12' W 123°48'0 0.0
2015-Aug-26 06:33N 46°12' W 123°48'0 0.0
2015-Aug-26 05:33N 46°12' W 123°48'0 0.0
2015-Aug-26 04:33N 46°12' W 123°48'0 0.0
2015-Aug-26 03:33N 46°12' W 123°48'0 0.0
2015-Aug-26 02:33N 46°12' W 123°48'0 0.0
2015-Aug-26 01:33N 46°12' W 123°48'0 0.0
2015-Aug-26 00:33N 46°12' W 123°48'0 0.0
2015-Aug-25 23:33N 46°12' W 123°48'0 0.0
2015-Aug-25 22:33N 46°12' W 123°48'0 0.0
2015-Aug-25 21:33N 46°12' W 123°48'0 0.0
2015-Aug-25 20:30N 46°12' W 123°48'0 0.0
2015-Aug-25 19:33N 46°12' W 123°48'0 0.0
2015-Aug-25 18:30N 46°12' W 123°48'0 0.0
2015-Aug-25 17:33N 46°12' W 123°48'0 0.0
2015-Aug-25 16:33N 46°12' W 123°48'0 0.0
2015-Aug-25 15:34N 46°12' W 123°48'0 0.0
2015-Aug-25 14:33N 46°12' W 123°48'0 0.0
2015-Aug-25 13:34N 46°12' W 123°48'0 0.0
2015-Aug-25 12:34N 46°12' W 123°48'0 0.0
2015-Aug-25 11:28N 46°12' W 123°48'0 0.0
2015-Aug-25 10:34N 46°12' W 123°48'0 0.0
2015-Aug-25 09:34N 46°12' W 123°48'0 0.0
2015-Aug-25 08:34N 46°12' W 123°48'0 0.0
2015-Aug-25 07:31N 46°12' W 123°48'0 0.0
2015-Aug-25 06:34N 46°12' W 123°48'0 0.0
2015-Aug-25 05:31N 46°12' W 123°48'0 0.0
2015-Aug-25 04:31N 46°12' W 123°48'0 0.0
2015-Aug-25 03:31N 46°12' W 123°48'0 0.0
2015-Aug-25 02:31N 46°12' W 123°48'0 0.0
2015-Aug-25 01:31N 46°12' W 123°48'0 0.0
2015-Aug-25 00:31N 46°12' W 123°48'0 0.0
2015-Aug-24 23:31N 46°12' W 123°48'0 0.0
2015-Aug-24 22:31N 46°12' W 123°48'0 0.0
2015-Aug-24 21:31N 46°12' W 123°48'0 0.0
2015-Aug-24 20:28N 46°12' W 123°48'0 0.0
2015-Aug-24 19:31N 46°12' W 123°48'0 0.0
2015-Aug-24 18:31N 46°12' W 123°48'0 0.0
2015-Aug-24 17:28N 46°12' W 123°48'0 0.0
2015-Aug-24 16:31N 46°12' W 123°48'0 0.0
2015-Aug-24 15:31N 46°12' W 123°48'0 0.0
2015-Aug-24 14:31N 46°12' W 123°48'0 0.0
2015-Aug-24 13:31N 46°12' W 123°48'0 0.0
2015-Aug-24 12:31N 46°12' W 123°48'0 0.0
2015-Aug-24 11:31N 46°12' W 123°48'0 0.0
2015-Aug-24 10:28N 46°12' W 123°48'0 0.0
2015-Aug-24 09:31N 46°12' W 123°48'0 0.0
2015-Aug-24 08:31N 46°12' W 123°48'0 0.0
2015-Aug-24 07:31N 46°12' W 123°48'0 0.0
2015-Aug-24 06:31N 46°12' W 123°48'0 0.0
2015-Aug-24 05:31N 46°12' W 123°48'0 0.0
2015-Aug-24 04:28N 46°12' W 123°48'0 0.0
2015-Aug-24 03:31N 46°12' W 123°48'0 0.0
2015-Aug-24 02:31N 46°12' W 123°48'0 0.0
2015-Aug-24 01:31N 46°12' W 123°48'0 0.0
2015-Aug-24 00:31N 46°12' W 123°48'0 0.0
2015-Aug-23 23:31N 46°12' W 123°48'0 0.0
2015-Aug-23 22:31N 46°12' W 123°48'0 0.0
2015-Aug-23 21:28N 46°12' W 123°48'0 0.0
2015-Aug-23 20:28N 46°12' W 123°48'0 0.0
2015-Aug-23 19:31N 46°12' W 123°48'0 0.0
2015-Aug-23 18:31N 46°12' W 123°48'0 0.0
2015-Aug-23 17:31N 46°12' W 123°48'0 0.0
2015-Aug-23 16:28N 46°12' W 123°48'0 0.0
2015-Aug-23 15:31N 46°12' W 123°48'0 0.0
2015-Aug-23 14:31N 46°12' W 123°48'0 0.0
2015-Aug-23 13:31N 46°12' W 123°48'0 0.0
2015-Aug-23 12:31N 46°12' W 123°48'0 0.0
2015-Aug-23 11:31N 46°12' W 123°48'0 0.0
2015-Aug-23 10:31N 46°12' W 123°48'0 0.0
2015-Aug-23 09:31N 46°12' W 123°48'0 0.0
2015-Aug-23 08:31N 46°12' W 123°48'0 0.0
2015-Aug-23 07:28N 46°12' W 123°48'0 0.0
2015-Aug-23 06:28N 46°12' W 123°48'0 0.0
2015-Aug-23 05:31N 46°12' W 123°48'0 0.0
2015-Aug-23 04:28N 46°12' W 123°48'0 0.0
2015-Aug-23 03:31N 46°12' W 123°48'0 0.0
2015-Aug-23 02:31N 46°12' W 123°48'  
Track history (hours):
 
Tides and Currents Weather Stations Pressure Air Temp Water Temp Dewpoint Dewpoint Depression Visibility Wind Speed Wind Dir Waves Ship Positions

Ocean Beaut

Owner: John Moreland Fishing Inc., Astoria, OR. More information available from US FCC via Universal Licensing System.

Last reported at 2015-Sep-02 01:32 UTC. Time now 2015-Sep-02 02:27 UTC.
Position N 46°26' W 124°19'.

Length 20 m.

Type: Fishing. MMSI: 367187080.

Date/timePositionNaut miles runAvg speedWind from/ knotsBaromVisibWave heightAir tempDewpointWater temp
2015-Sep-02 01:32N 46°26' W 124°19'1 1.5
2015-Sep-02 00:34N 46°26' W 124°21'2 2.3
2015-Sep-01 23:32N 46°23' W 124°21'2 2.5
2015-Sep-01 22:33N 46°21' W 124°21'2 1.9
2015-Sep-01 21:33N 46°19' W 124°20'1 1.4
2015-Sep-01 20:33N 46°20' W 124°22'2 2.2
2015-Sep-01 19:31N 46°21' W 124°24'2 2.3
2015-Sep-01 18:33N 46°24' W 124°25'3 2.5
2015-Sep-01 17:33N 46°26' W 124°25'2 2.0
2015-Sep-01 16:33N 46°24' W 124°24'2 2.3
2015-Sep-01 15:33N 46°22' W 124°23'2 2.4
2015-Sep-01 14:33N 46°20' W 124°21'3 2.6
2015-Sep-01 13:33N 46°18' W 124°19'1 1.2
2015-Sep-01 12:30N 46°19' W 124°20'1 0.7
2015-Sep-01 11:33N 46°19' W 124°20'1 0.9
2015-Sep-01 10:33N 46°19' W 124°20'2 1.5
2015-Sep-01 09:33N 46°17' W 124°20'4 3.6
2015-Sep-01 08:33N 46°14' W 124°19'2 2.5
2015-Sep-01 07:33N 46°11' W 124°20'3 2.6
2015-Sep-01 06:33N 46°09' W 124°20'3 2.7
2015-Sep-01 05:34N 46°06' W 124°20'4 3.6
2015-Sep-01 04:33N 46°10' W 124°20'6 6.3
2015-Sep-01 03:33N 46°16' W 124°21'3 3.3
2015-Sep-01 02:33N 46°19' W 124°21'2 2.1
2015-Sep-01 01:32N 46°21' W 124°22'2 2.4
2015-Sep-01 00:33N 46°23' W 124°23'2 2.3
2015-Aug-31 23:33N 46°26' W 124°24'1 0.7
2015-Aug-31 22:33N 46°25' W 124°25'2 2.1
2015-Aug-31 21:30N 46°23' W 124°24'2 2.4
2015-Aug-31 20:33N 46°21' W 124°24'2 2.4
2015-Aug-31 19:32N 46°19' W 124°21'1 1.4
2015-Aug-31 18:33N 46°18' W 124°20'2 1.7
2015-Aug-31 17:33N 46°20' W 124°21'2 2.1
2015-Aug-31 16:33N 46°22' W 124°23'2 2.3
2015-Aug-31 15:33N 46°24' W 124°24'2 2.2
2015-Aug-31 14:33N 46°26' W 124°25'2 1.8
2015-Aug-31 13:32N 46°28' W 124°25'1 0.7
2015-Aug-31 12:33N 46°27' W 124°25'1 0.7
2015-Aug-31 11:32N 46°26' W 124°25'2 1.5
2015-Aug-31 10:32N 46°25' W 124°25'2 2.4
2015-Aug-31 09:33N 46°23' W 124°24'2 2.5
2015-Aug-31 08:33N 46°20' W 124°23'3 2.5
2015-Aug-31 07:33N 46°18' W 124°22'2 2.2
2015-Aug-31 06:33N 46°18' W 124°19'1 1.4
2015-Aug-31 05:33N 46°19' W 124°21'2 2.4
2015-Aug-31 04:33N 46°21' W 124°22'2 2.4
2015-Aug-31 03:33N 46°24' W 124°24'2 2.2
2015-Aug-31 02:33N 46°26' W 124°24'0 0.3
2015-Aug-31 01:33N 46°25' W 124°25'2 2.3
2015-Aug-31 00:32N 46°23' W 124°24'2 2.4
2015-Aug-30 23:32N 46°21' W 124°23'2 2.5
2015-Aug-30 22:32N 46°19' W 124°21'8 7.0
2015-Aug-30 21:26N 46°15' W 124°11'6 6.6
2015-Aug-30 20:33N 46°15' W 124°03'5 5.1
2015-Aug-30 19:33N 46°13' W 123°57'5 5.2
2015-Aug-30 18:33N 46°12' W 123°49'1 0.6
2015-Aug-30 17:33N 46°12' W 123°48'0 0.0
2015-Aug-30 16:33N 46°12' W 123°48'0 0.0
2015-Aug-30 15:33N 46°12' W 123°48'0 0.0
2015-Aug-30 14:34N 46°12' W 123°48'0 0.0
2015-Aug-30 13:33N 46°12' W 123°48'0 0.0
2015-Aug-30 12:33N 46°12' W 123°48'0 0.0
2015-Aug-30 11:34N 46°12' W 123°48'0 0.0
2015-Aug-30 10:33N 46°12' W 123°48'0 0.0
2015-Aug-30 09:33N 46°12' W 123°48'0 0.0
2015-Aug-30 08:33N 46°12' W 123°48'0 0.0
2015-Aug-30 07:33N 46°12' W 123°48'0 0.0
2015-Aug-30 06:30N 46°12' W 123°48'0 0.0
2015-Aug-30 05:34N 46°12' W 123°48'0 0.0
2015-Aug-30 04:34N 46°12' W 123°48'0 0.0
2015-Aug-30 03:34N 46°12' W 123°48'0 0.0
2015-Aug-30 02:34N 46°12' W 123°48'0 0.0
2015-Aug-30 01:31N 46°12' W 123°48'0 0.0
2015-Aug-30 00:34N 46°12' W 123°48'0 0.0
2015-Aug-29 23:31N 46°12' W 123°48'0 0.0
2015-Aug-29 22:31N 46°12' W 123°48'0 0.0
2015-Aug-29 21:31N 46°12' W 123°48'0 0.0
2015-Aug-29 20:31N 46°12' W 123°48'0 0.0
2015-Aug-29 19:31N 46°12' W 123°48'0 0.0
2015-Aug-29 18:31N 46°12' W 123°48'0 0.0
2015-Aug-29 17:31N 46°12' W 123°48'0 0.0
2015-Aug-29 16:31N 46°12' W 123°48'0 0.0
2015-Aug-29 15:31N 46°12' W 123°48'0 0.0
2015-Aug-29 14:31N 46°12' W 123°48'0 0.0
2015-Aug-29 13:28N 46°12' W 123°48'0 0.0
2015-Aug-29 12:31N 46°12' W 123°48'0 0.0
2015-Aug-29 11:31N 46°12' W 123°48'0 0.0
2015-Aug-29 10:31N 46°12' W 123°48'0 0.0
2015-Aug-29 09:31N 46°12' W 123°48'0 0.0
2015-Aug-29 08:31N 46°12' W 123°48'0 0.0
2015-Aug-29 07:31N 46°12' W 123°48'0 0.0
2015-Aug-29 06:31N 46°12' W 123°48'0 0.0
2015-Aug-29 05:31N 46°12' W 123°48'0 0.0
2015-Aug-29 04:31N 46°12' W 123°48'0 0.0
2015-Aug-29 03:31N 46°12' W 123°48'0 0.0
2015-Aug-29 02:31N 46°12' W 123°48'0 0.0
2015-Aug-29 01:28N 46°12' W 123°48'0 0.0
2015-Aug-29 00:31N 46°12' W 123°48'0 0.0
2015-Aug-28 23:31N 46°12' W 123°48'0 0.0
2015-Aug-28 22:31N 46°12' W 123°48'0 0.0
2015-Aug-28 21:31N 46°12' W 123°48'0 0.0
2015-Aug-28 20:31N 46°12' W 123°48'0 0.0
2015-Aug-28 19:31N 46°12' W 123°48'0 0.0
2015-Aug-28 18:31N 46°12' W 123°48'0 0.0
2015-Aug-28 17:31N 46°12' W 123°48'0 0.0
2015-Aug-28 16:31N 46°12' W 123°48'0 0.0
2015-Aug-28 15:31N 46°12' W 123°48'0 0.0
2015-Aug-28 14:31N 46°12' W 123°48'0 0.0
2015-Aug-28 13:31N 46°12' W 123°48'0 0.0
2015-Aug-28 12:31N 46°12' W 123°48'0 0.0
2015-Aug-28 11:31N 46°12' W 123°48'0 0.0
2015-Aug-28 10:31N 46°12' W 123°48'0 0.0
2015-Aug-28 09:28N 46°12' W 123°48'0 0.0
2015-Aug-28 08:31N 46°12' W 123°48'0 0.0
2015-Aug-28 07:31N 46°12' W 123°48'0 0.0
2015-Aug-28 06:31N 46°12' W 123°48'0 0.0
2015-Aug-28 05:31N 46°12' W 123°48'0 0.0
2015-Aug-28 04:31N 46°12' W 123°48'0 0.0
2015-Aug-28 03:31N 46°12' W 123°48'0 0.0
2015-Aug-28 02:31N 46°12' W 123°48'0 0.0
2015-Aug-28 01:31N 46°12' W 123°48'0 0.0
2015-Aug-28 00:28N 46°12' W 123°48'0 0.0
2015-Aug-27 23:31N 46°12' W 123°48'0 0.0
2015-Aug-27 22:31N 46°12' W 123°48'0 0.0
2015-Aug-27 21:31N 46°12' W 123°48'0 0.0
2015-Aug-27 20:31N 46°12' W 123°48'2 1.5
2015-Aug-27 19:29N 46°12' W 123°50'1 0.9
2015-Aug-27 18:31N 46°11' W 123°51'1 1.1
2015-Aug-27 17:34N 46°12' W 123°50'1 1.3
2015-Aug-27 16:33N 46°12' W 123°48'0 0.0
2015-Aug-27 15:30N 46°12' W 123°48'0 0.0
2015-Aug-27 14:33N 46°12' W 123°48'0 0.0
2015-Aug-27 13:33N 46°12' W 123°48'0 0.0
2015-Aug-27 12:33N 46°12' W 123°48'0 0.0
2015-Aug-27 11:33N 46°12' W 123°48'0 0.0
2015-Aug-27 10:33N 46°12' W 123°48'0 0.0
2015-Aug-27 09:33N 46°12' W 123°48'0 0.0
2015-Aug-27 08:33N 46°12' W 123°48'0 0.0
2015-Aug-27 07:33N 46°12' W 123°48'0 0.0
2015-Aug-27 06:33N 46°12' W 123°48'0 0.0
2015-Aug-27 05:30N 46°12' W 123°48'0 0.0
2015-Aug-27 04:33N 46°12' W 123°48'0 0.0
2015-Aug-27 03:33N 46°12' W 123°48'0 0.0
2015-Aug-27 02:33N 46°12' W 123°48'0 0.0
2015-Aug-27 01:30N 46°12' W 123°48'0 0.0
2015-Aug-27 00:33N 46°12' W 123°48'0 0.0
2015-Aug-26 23:33N 46°12' W 123°48'0 0.0
2015-Aug-26 22:33N 46°12' W 123°48'0 0.0
2015-Aug-26 21:33N 46°12' W 123°48'0 0.0
2015-Aug-26 20:33N 46°12' W 123°48'0 0.0
2015-Aug-26 19:33N 46°12' W 123°48'0 0.0
2015-Aug-26 18:33N 46°12' W 123°48'0 0.0
2015-Aug-26 17:33N 46°12' W 123°48'0 0.0
2015-Aug-26 16:33N 46°12' W 123°48'0 0.0
2015-Aug-26 15:33N 46°12' W 123°48'0 0.0
2015-Aug-26 14:33N 46°12' W 123°48'0 0.0
2015-Aug-26 13:33N 46°12' W 123°48'0 0.0
2015-Aug-26 12:33N 46°12' W 123°48'0 0.0
2015-Aug-26 11:33N 46°12' W 123°48'0 0.0
2015-Aug-26 10:30N 46°12' W 123°48'0 0.0
2015-Aug-26 09:33N 46°12' W 123°48'0 0.0
2015-Aug-26 08:33N 46°12' W 123°48'0 0.0
2015-Aug-26 07:33N 46°12' W 123°48'0 0.0
2015-Aug-26 06:33N 46°12' W 123°48'0 0.0
2015-Aug-26 05:33N 46°12' W 123°48'0 0.0
2015-Aug-26 04:33N 46°12' W 123°48'0 0.0
2015-Aug-26 03:33N 46°12' W 123°48'0 0.0
2015-Aug-26 02:33N 46°12' W 123°48'0 0.0
2015-Aug-26 01:33N 46°12' W 123°48'0 0.0
2015-Aug-26 00:33N 46°12' W 123°48'0 0.0
2015-Aug-25 23:33N 46°12' W 123°48'0 0.0
2015-Aug-25 22:33N 46°12' W 123°48'0 0.0
2015-Aug-25 21:33N 46°12' W 123°48'0 0.0
2015-Aug-25 20:30N 46°12' W 123°48'0 0.0
2015-Aug-25 19:33N 46°12' W 123°48'0 0.0
2015-Aug-25 18:30N 46°12' W 123°48'0 0.0
2015-Aug-25 17:33N 46°12' W 123°48'0 0.0
2015-Aug-25 16:33N 46°12' W 123°48'0 0.0
2015-Aug-25 15:34N 46°12' W 123°48'0 0.0
2015-Aug-25 14:33N 46°12' W 123°48'0 0.0
2015-Aug-25 13:34N 46°12' W 123°48'0 0.0
2015-Aug-25 12:34N 46°12' W 123°48'0 0.0
2015-Aug-25 11:28N 46°12' W 123°48'0 0.0
2015-Aug-25 10:34N 46°12' W 123°48'0 0.0
2015-Aug-25 09:34N 46°12' W 123°48'0 0.0
2015-Aug-25 08:34N 46°12' W 123°48'0 0.0
2015-Aug-25 07:31N 46°12' W 123°48'0 0.0
2015-Aug-25 06:34N 46°12' W 123°48'0 0.0
2015-Aug-25 05:31N 46°12' W 123°48'0 0.0
2015-Aug-25 04:31N 46°12' W 123°48'0 0.0
2015-Aug-25 03:31N 46°12' W 123°48'0 0.0
2015-Aug-25 02:31N 46°12' W 123°48'0 0.0
2015-Aug-25 01:31N 46°12' W 123°48'0 0.0
2015-Aug-25 00:31N 46°12' W 123°48'0 0.0
2015-Aug-24 23:31N 46°12' W 123°48'0 0.0
2015-Aug-24 22:31N 46°12' W 123°48'0 0.0
2015-Aug-24 21:31N 46°12' W 123°48'0 0.0
2015-Aug-24 20:28N 46°12' W 123°48'0 0.0
2015-Aug-24 19:31N 46°12' W 123°48'0 0.0
2015-Aug-24 18:31N 46°12' W 123°48'0 0.0
2015-Aug-24 17:28N 46°12' W 123°48'0 0.0
2015-Aug-24 16:31N 46°12' W 123°48'0 0.0
2015-Aug-24 15:31N 46°12' W 123°48'0 0.0
2015-Aug-24 14:31N 46°12' W 123°48'0 0.0
2015-Aug-24 13:31N 46°12' W 123°48'0 0.0
2015-Aug-24 12:31N 46°12' W 123°48'0 0.0
2015-Aug-24 11:31N 46°12' W 123°48'0 0.0
2015-Aug-24 10:28N 46°12' W 123°48'0 0.0
2015-Aug-24 09:31N 46°12' W 123°48'0 0.0
2015-Aug-24 08:31N 46°12' W 123°48'0 0.0
2015-Aug-24 07:31N 46°12' W 123°48'0 0.0
2015-Aug-24 06:31N 46°12' W 123°48'0 0.0
2015-Aug-24 05:31N 46°12' W 123°48'0 0.0
2015-Aug-24 04:28N 46°12' W 123°48'0 0.0
2015-Aug-24 03:31N 46°12' W 123°48'0 0.0
2015-Aug-24 02:31N 46°12' W 123°48'0 0.0
2015-Aug-24 01:31N 46°12' W 123°48'0 0.0
2015-Aug-24 00:31N 46°12' W 123°48'0 0.0
2015-Aug-23 23:31N 46°12' W 123°48'0 0.0
2015-Aug-23 22:31N 46°12' W 123°48'0 0.0
2015-Aug-23 21:28N 46°12' W 123°48'0 0.0
2015-Aug-23 20:28N 46°12' W 123°48'0 0.0
2015-Aug-23 19:31N 46°12' W 123°48'0 0.0
2015-Aug-23 18:31N 46°12' W 123°48'0 0.0
2015-Aug-23 17:31N 46°12' W 123°48'0 0.0
2015-Aug-23 16:28N 46°12' W 123°48'0 0.0
2015-Aug-23 15:31N 46°12' W 123°48'0 0.0
2015-Aug-23 14:31N 46°12' W 123°48'0 0.0
2015-Aug-23 13:31N 46°12' W 123°48'0 0.0
2015-Aug-23 12:31N 46°12' W 123°48'0 0.0
2015-Aug-23 11:31N 46°12' W 123°48'0 0.0
2015-Aug-23 10:31N 46°12' W 123°48'0 0.0
2015-Aug-23 09:31N 46°12' W 123°48'0 0.0
2015-Aug-23 08:31N 46°12' W 123°48'0 0.0
2015-Aug-23 07:28N 46°12' W 123°48'0 0.0
2015-Aug-23 06:28N 46°12' W 123°48'0 0.0
2015-Aug-23 05:31N 46°12' W 123°48'0 0.0
2015-Aug-23 04:28N 46°12' W 123°48'0 0.0
2015-Aug-23 03:31N 46°12' W 123°48'0 0.0
2015-Aug-23 02:31N 46°12' W 123°48'  

Dump ship's entire track history